sensor_id;sensor_type;location;lat;lon;timestamp;temperature;humidity
16827;DHT22;8530;49.540;8.576;2023-07-13T00:00:47;21.80;40.60
16827;DHT22;8530;49.540;8.576;2023-07-13T00:03:14;21.90;40.80
16827;DHT22;8530;49.540;8.576;2023-07-13T00:05:40;21.90;40.80
16827;DHT22;8530;49.540;8.576;2023-07-13T00:08:09;21.80;40.70
16827;DHT22;8530;49.540;8.576;2023-07-13T00:10:39;21.80;40.60
16827;DHT22;8530;49.540;8.576;2023-07-13T00:13:07;21.70;40.60
16827;DHT22;8530;49.540;8.576;2023-07-13T00:15:34;21.60;40.50
16827;DHT22;8530;49.540;8.576;2023-07-13T00:18:01;21.60;40.70
16827;DHT22;8530;49.540;8.576;2023-07-13T00:20:28;21.50;40.80
16827;DHT22;8530;49.540;8.576;2023-07-13T00:22:54;21.40;40.80
16827;DHT22;8530;49.540;8.576;2023-07-13T00:25:24;21.40;40.90
16827;DHT22;8530;49.540;8.576;2023-07-13T00:27:53;21.30;41.00
16827;DHT22;8530;49.540;8.576;2023-07-13T00:30:20;21.20;41.10
16827;DHT22;8530;49.540;8.576;2023-07-13T00:32:47;21.10;41.20
16827;DHT22;8530;49.540;8.576;2023-07-13T00:35:15;21.00;41.20
16827;DHT22;8530;49.540;8.576;2023-07-13T00:37:42;20.90;41.40
16827;DHT22;8530;49.540;8.576;2023-07-13T00:40:10;20.90;41.60
16827;DHT22;8530;49.540;8.576;2023-07-13T00:42:39;20.70;41.60
16827;DHT22;8530;49.540;8.576;2023-07-13T00:47:50;20.60;41.90
16827;DHT22;8530;49.540;8.576;2023-07-13T00:50:18;20.40;41.90
16827;DHT22;8530;49.540;8.576;2023-07-13T00:52:48;20.30;42.10
16827;DHT22;8530;49.540;8.576;2023-07-13T00:55:16;20.30;42.30
16827;DHT22;8530;49.540;8.576;2023-07-13T00:57:45;20.20;42.40
16827;DHT22;8530;49.540;8.576;2023-07-13T01:00:12;20.10;42.50
16827;DHT22;8530;49.540;8.576;2023-07-13T01:02:42;20.00;42.70
16827;DHT22;8530;49.540;8.576;2023-07-13T01:05:09;19.90;42.80
16827;DHT22;8530;49.540;8.576;2023-07-13T01:07:36;19.80;43.00
16827;DHT22;8530;49.540;8.576;2023-07-13T01:10:03;19.70;43.30
16827;DHT22;8530;49.540;8.576;2023-07-13T01:12:30;19.60;43.40
16827;DHT22;8530;49.540;8.576;2023-07-13T01:14:59;19.60;43.60
16827;DHT22;8530;49.540;8.576;2023-07-13T01:17:27;19.50;43.80
16827;DHT22;8530;49.540;8.576;2023-07-13T01:19:54;19.50;44.10
16827;DHT22;8530;49.540;8.576;2023-07-13T01:22:22;19.50;44.40
16827;DHT22;8530;49.540;8.576;2023-07-13T01:24:53;19.40;44.60
16827;DHT22;8530;49.540;8.576;2023-07-13T01:27:22;19.40;44.70
16827;DHT22;8530;49.540;8.576;2023-07-13T01:29:51;19.30;44.80
16827;DHT22;8530;49.540;8.576;2023-07-13T01:32:20;19.20;44.80
16827;DHT22;8530;49.540;8.576;2023-07-13T01:34:49;19.20;45.10
16827;DHT22;8530;49.540;8.576;2023-07-13T01:37:19;19.00;45.10
16827;DHT22;8530;49.540;8.576;2023-07-13T01:39:48;19.00;45.40
16827;DHT22;8530;49.540;8.576;2023-07-13T01:42:14;18.90;45.60
16827;DHT22;8530;49.540;8.576;2023-07-13T01:44:41;18.90;45.80
16827;DHT22;8530;49.540;8.576;2023-07-13T01:47:09;18.80;46.00
16827;DHT22;8530;49.540;8.576;2023-07-13T01:49:36;18.80;46.10
16827;DHT22;8530;49.540;8.576;2023-07-13T01:52:04;18.70;46.20
16827;DHT22;8530;49.540;8.576;2023-07-13T01:54:30;18.70;46.40
16827;DHT22;8530;49.540;8.576;2023-07-13T01:57:00;18.60;46.50
16827;DHT22;8530;49.540;8.576;2023-07-13T01:59:28;18.50;46.70
16827;DHT22;8530;49.540;8.576;2023-07-13T02:01:55;18.50;46.90
16827;DHT22;8530;49.540;8.576;2023-07-13T02:04:21;18.40;47.00
16827;DHT22;8530;49.540;8.576;2023-07-13T02:06:48;18.40;47.30
16827;DHT22;8530;49.540;8.576;2023-07-13T02:09:15;18.30;47.30
16827;DHT22;8530;49.540;8.576;2023-07-13T02:11:41;18.30;47.50
16827;DHT22;8530;49.540;8.576;2023-07-13T02:14:09;18.20;47.60
16827;DHT22;8530;49.540;8.576;2023-07-13T02:16:36;18.10;47.70
16827;DHT22;8530;49.540;8.576;2023-07-13T02:19:03;18.10;47.90
16827;DHT22;8530;49.540;8.576;2023-07-13T02:21:31;18.10;48.10
16827;DHT22;8530;49.540;8.576;2023-07-13T02:23:58;18.00;48.10
16827;DHT22;8530;49.540;8.576;2023-07-13T02:26:25;18.00;48.30
16827;DHT22;8530;49.540;8.576;2023-07-13T02:28:52;17.90;48.40
16827;DHT22;8530;49.540;8.576;2023-07-13T02:31:20;17.90;48.70
16827;DHT22;8530;49.540;8.576;2023-07-13T02:33:47;17.80;48.80
16827;DHT22;8530;49.540;8.576;2023-07-13T02:36:14;17.80;48.90
16827;DHT22;8530;49.540;8.576;2023-07-13T02:38:41;17.80;49.10
16827;DHT22;8530;49.540;8.576;2023-07-13T02:41:09;17.80;49.20
16827;DHT22;8530;49.540;8.576;2023-07-13T02:43:36;17.70;49.80
16827;DHT22;8530;49.540;8.576;2023-07-13T02:46:03;17.70;49.40
16827;DHT22;8530;49.540;8.576;2023-07-13T02:48:33;17.70;49.60
16827;DHT22;8530;49.540;8.576;2023-07-13T02:51:00;17.70;49.80
16827;DHT22;8530;49.540;8.576;2023-07-13T02:53:27;17.60;49.80
16827;DHT22;8530;49.540;8.576;2023-07-13T02:55:54;17.60;50.00
16827;DHT22;8530;49.540;8.576;2023-07-13T02:58:20;17.60;50.10
16827;DHT22;8530;49.540;8.576;2023-07-13T03:00:48;17.60;50.30
16827;DHT22;8530;49.540;8.576;2023-07-13T03:03:15;17.60;50.40
16827;DHT22;8530;49.540;8.576;2023-07-13T03:05:45;17.50;50.60
16827;DHT22;8530;49.540;8.576;2023-07-13T03:08:15;17.50;50.80
16827;DHT22;8530;49.540;8.576;2023-07-13T03:10:43;17.50;50.90
16827;DHT22;8530;49.540;8.576;2023-07-13T03:13:10;17.50;51.00
16827;DHT22;8530;49.540;8.576;2023-07-13T03:15:36;17.50;51.20
16827;DHT22;8530;49.540;8.576;2023-07-13T03:18:03;17.50;51.40
16827;DHT22;8530;49.540;8.576;2023-07-13T03:20:32;17.40;51.40
16827;DHT22;8530;49.540;8.576;2023-07-13T03:23:00;17.40;51.60
16827;DHT22;8530;49.540;8.576;2023-07-13T03:25:28;17.40;51.80
16827;DHT22;8530;49.540;8.576;2023-07-13T03:27:55;17.40;51.90
16827;DHT22;8530;49.540;8.576;2023-07-13T03:30:21;17.40;52.00
16827;DHT22;8530;49.540;8.576;2023-07-13T03:32:48;17.40;52.10
16827;DHT22;8530;49.540;8.576;2023-07-13T03:35:15;17.40;52.20
16827;DHT22;8530;49.540;8.576;2023-07-13T03:37:42;17.40;52.40
16827;DHT22;8530;49.540;8.576;2023-07-13T03:40:11;17.40;52.40
16827;DHT22;8530;49.540;8.576;2023-07-13T03:42:38;17.40;52.60
16827;DHT22;8530;49.540;8.576;2023-07-13T03:45:06;17.40;52.60
16827;DHT22;8530;49.540;8.576;2023-07-13T03:47:33;17.40;52.70
16827;DHT22;8530;49.540;8.576;2023-07-13T03:49:59;17.40;52.70
16827;DHT22;8530;49.540;8.576;2023-07-13T03:52:26;17.50;52.80
16827;DHT22;8530;49.540;8.576;2023-07-13T03:54:53;17.50;52.80
16827;DHT22;8530;49.540;8.576;2023-07-13T03:57:21;17.60;52.90
16827;DHT22;8530;49.540;8.576;2023-07-13T03:59:48;17.70;53.00
16827;DHT22;8530;49.540;8.576;2023-07-13T04:02:15;17.70;52.90
16827;DHT22;8530;49.540;8.576;2023-07-13T04:04:43;17.80;52.90
16827;DHT22;8530;49.540;8.576;2023-07-13T04:07:09;17.90;52.90
16827;DHT22;8530;49.540;8.576;2023-07-13T04:09:36;18.00;52.90
16827;DHT22;8530;49.540;8.576;2023-07-13T04:12:03;18.70;52.90
16827;DHT22;8530;49.540;8.576;2023-07-13T04:14:32;19.20;52.80
16827;DHT22;8530;49.540;8.576;2023-07-13T04:16:58;19.30;52.60
16827;DHT22;8530;49.540;8.576;2023-07-13T04:19:25;19.40;52.50
16827;DHT22;8530;49.540;8.576;2023-07-13T04:21:52;19.30;52.10
16827;DHT22;8530;49.540;8.576;2023-07-13T04:24:18;19.30;52.00
16827;DHT22;8530;49.540;8.576;2023-07-13T04:26:45;19.30;51.80
16827;DHT22;8530;49.540;8.576;2023-07-13T04:29:12;19.30;51.70
16827;DHT22;8530;49.540;8.576;2023-07-13T04:31:40;19.30;51.50
16827;DHT22;8530;49.540;8.576;2023-07-13T04:34:06;19.40;51.40
16827;DHT22;8530;49.540;8.576;2023-07-13T04:36:33;19.50;51.30
16827;DHT22;8530;49.540;8.576;2023-07-13T04:39:02;19.50;51.20
16827;DHT22;8530;49.540;8.576;2023-07-13T04:41:29;19.60;51.10
16827;DHT22;8530;49.540;8.576;2023-07-13T04:43:56;19.70;51.00
16827;DHT22;8530;49.540;8.576;2023-07-13T04:46:22;19.80;51.00
16827;DHT22;8530;49.540;8.576;2023-07-13T04:48:50;19.80;50.80
16827;DHT22;8530;49.540;8.576;2023-07-13T04:51:18;19.80;50.60
16827;DHT22;8530;49.540;8.576;2023-07-13T04:53:45;19.80;50.50
16827;DHT22;8530;49.540;8.576;2023-07-13T04:56:12;19.80;50.50
16827;DHT22;8530;49.540;8.576;2023-07-13T04:58:38;19.80;50.40
16827;DHT22;8530;49.540;8.576;2023-07-13T05:01:06;19.80;50.40
16827;DHT22;8530;49.540;8.576;2023-07-13T05:03:34;19.70;50.30
16827;DHT22;8530;49.540;8.576;2023-07-13T05:06:04;19.70;50.20
16827;DHT22;8530;49.540;8.576;2023-07-13T05:08:32;19.70;50.20
16827;DHT22;8530;49.540;8.576;2023-07-13T05:10:59;19.80;50.30
16827;DHT22;8530;49.540;8.576;2023-07-13T05:13:26;20.00;50.40
16827;DHT22;8530;49.540;8.576;2023-07-13T05:15:59;20.10;50.30
16827;DHT22;8530;49.540;8.576;2023-07-13T05:18:26;20.30;50.30
16827;DHT22;8530;49.540;8.576;2023-07-13T05:21:00;20.50;50.20
16827;DHT22;8530;49.540;8.576;2023-07-13T05:23:29;20.70;50.00
16827;DHT22;8530;49.540;8.576;2023-07-13T05:25:57;20.90;49.90
16827;DHT22;8530;49.540;8.576;2023-07-13T05:28:24;21.00;49.70
16827;DHT22;8530;49.540;8.576;2023-07-13T05:30:51;21.20;49.70
16827;DHT22;8530;49.540;8.576;2023-07-13T05:33:19;21.30;49.50
16827;DHT22;8530;49.540;8.576;2023-07-13T05:35:46;21.50;49.40
16827;DHT22;8530;49.540;8.576;2023-07-13T05:38:14;21.60;49.20
16827;DHT22;8530;49.540;8.576;2023-07-13T05:40:43;21.90;49.10
16827;DHT22;8530;49.540;8.576;2023-07-13T05:43:10;22.20;48.90
16827;DHT22;8530;49.540;8.576;2023-07-13T05:45:37;22.60;48.80
16827;DHT22;8530;49.540;8.576;2023-07-13T05:48:04;23.10;48.60
16827;DHT22;8530;49.540;8.576;2023-07-13T05:50:31;24.30;49.10
16827;DHT22;8530;49.540;8.576;2023-07-13T05:52:58;26.10;47.60
16827;DHT22;8530;49.540;8.576;2023-07-13T05:55:24;27.50;45.50
16827;DHT22;8530;49.540;8.576;2023-07-13T05:57:52;29.30;43.70
16827;DHT22;8530;49.540;8.576;2023-07-13T06:00:20;31.40;41.10
16827;DHT22;8530;49.540;8.576;2023-07-13T06:02:46;33.00;38.40
16827;DHT22;8530;49.540;8.576;2023-07-13T06:05:13;33.20;36.10
16827;DHT22;8530;49.540;8.576;2023-07-13T06:07:41;32.80;34.30
16827;DHT22;8530;49.540;8.576;2023-07-13T06:10:08;32.10;33.10
16827;DHT22;8530;49.540;8.576;2023-07-13T06:12:35;31.60;32.60
16827;DHT22;8530;49.540;8.576;2023-07-13T06:15:04;31.60;32.20
16827;DHT22;8530;49.540;8.576;2023-07-13T06:17:31;32.20;31.40
16827;DHT22;8530;49.540;8.576;2023-07-13T06:19:58;32.90;30.70
16827;DHT22;8530;49.540;8.576;2023-07-13T06:22:24;33.60;29.80
16827;DHT22;8530;49.540;8.576;2023-07-13T06:24:52;34.90;29.00
16827;DHT22;8530;49.540;8.576;2023-07-13T06:27:18;36.40;28.30
16827;DHT22;8530;49.540;8.576;2023-07-13T06:29:45;38.00;26.90
16827;DHT22;8530;49.540;8.576;2023-07-13T06:32:13;39.60;25.10
16827;DHT22;8530;49.540;8.576;2023-07-13T06:34:40;40.80;23.40
16827;DHT22;8530;49.540;8.576;2023-07-13T06:37:06;41.80;22.70
16827;DHT22;8530;49.540;8.576;2023-07-13T06:39:33;42.80;20.90
16827;DHT22;8530;49.540;8.576;2023-07-13T06:42:00;43.50;19.80
16827;DHT22;8530;49.540;8.576;2023-07-13T06:44:26;43.20;18.90
16827;DHT22;8530;49.540;8.576;2023-07-13T06:46:53;42.70;18.50
16827;DHT22;8530;49.540;8.576;2023-07-13T06:49:21;42.90;18.30
16827;DHT22;8530;49.540;8.576;2023-07-13T06:51:48;43.70;17.90
16827;DHT22;8530;49.540;8.576;2023-07-13T06:54:15;44.70;17.30
16827;DHT22;8530;49.540;8.576;2023-07-13T06:56:42;45.80;16.50
16827;DHT22;8530;49.540;8.576;2023-07-13T06:59:08;46.80;15.80
16827;DHT22;8530;49.540;8.576;2023-07-13T07:01:35;47.80;14.90
16827;DHT22;8530;49.540;8.576;2023-07-13T07:04:03;48.50;14.30
16827;DHT22;8530;49.540;8.576;2023-07-13T07:06:31;49.30;13.60
16827;DHT22;8530;49.540;8.576;2023-07-13T07:08:58;50.00;13.00
16827;DHT22;8530;49.540;8.576;2023-07-13T07:11:26;50.20;12.70
16827;DHT22;8530;49.540;8.576;2023-07-13T07:13:53;50.20;12.30
16827;DHT22;8530;49.540;8.576;2023-07-13T07:16:20;50.50;12.00
16827;DHT22;8530;49.540;8.576;2023-07-13T07:18:47;50.60;11.60
16827;DHT22;8530;49.540;8.576;2023-07-13T07:21:15;49.70;11.70
16827;DHT22;8530;49.540;8.576;2023-07-13T07:23:44;49.10;12.40
16827;DHT22;8530;49.540;8.576;2023-07-13T07:26:10;48.60;12.00
16827;DHT22;8530;49.540;8.576;2023-07-13T07:28:37;48.40;12.00
16827;DHT22;8530;49.540;8.576;2023-07-13T07:31:04;48.50;12.00
16827;DHT22;8530;49.540;8.576;2023-07-13T07:33:32;49.10;11.60
16827;DHT22;8530;49.540;8.576;2023-07-13T07:35:59;49.70;11.20
16827;DHT22;8530;49.540;8.576;2023-07-13T07:38:25;49.90;11.00
16827;DHT22;8530;49.540;8.576;2023-07-13T07:40:53;50.30;11.00
16827;DHT22;8530;49.540;8.576;2023-07-13T07:43:20;50.70;10.80
16827;DHT22;8530;49.540;8.576;2023-07-13T07:45:47;50.50;10.70
16827;DHT22;8530;49.540;8.576;2023-07-13T07:48:13;50.20;10.70
16827;DHT22;8530;49.540;8.576;2023-07-13T07:50:40;50.40;10.60
16827;DHT22;8530;49.540;8.576;2023-07-13T07:53:07;50.80;10.50
16827;DHT22;8530;49.540;8.576;2023-07-13T07:55:36;51.00;10.00
16827;DHT22;8530;49.540;8.576;2023-07-13T07:58:05;51.10;10.00
16827;DHT22;8530;49.540;8.576;2023-07-13T08:00:32;51.20;9.70
16827;DHT22;8530;49.540;8.576;2023-07-13T08:03:01;51.40;9.50
16827;DHT22;8530;49.540;8.576;2023-07-13T08:05:28;51.30;9.30
16827;DHT22;8530;49.540;8.576;2023-07-13T08:07:54;50.90;9.30
16827;DHT22;8530;49.540;8.576;2023-07-13T08:10:21;50.50;9.20
16827;DHT22;8530;49.540;8.576;2023-07-13T08:12:48;50.00;9.20
16827;DHT22;8530;49.540;8.576;2023-07-13T08:15:17;49.40;9.20
16827;DHT22;8530;49.540;8.576;2023-07-13T08:17:46;48.70;9.20
16827;DHT22;8530;49.540;8.576;2023-07-13T08:20:13;47.80;9.30
16827;DHT22;8530;49.540;8.576;2023-07-13T08:22:40;47.10;9.50
16827;DHT22;8530;49.540;8.576;2023-07-13T08:25:07;46.10;9.50
16827;DHT22;8530;49.540;8.576;2023-07-13T08:27:34;44.90;9.70
16827;DHT22;8530;49.540;8.576;2023-07-13T08:30:01;43.50;10.00
16827;DHT22;8530;49.540;8.576;2023-07-13T08:32:29;42.10;10.50
16827;DHT22;8530;49.540;8.576;2023-07-13T08:34:56;40.90;11.20
16827;DHT22;8530;49.540;8.576;2023-07-13T08:37:23;39.80;11.80
16827;DHT22;8530;49.540;8.576;2023-07-13T08:39:50;38.70;12.40
16827;DHT22;8530;49.540;8.576;2023-07-13T08:42:26;37.60;13.10
16827;DHT22;8530;49.540;8.576;2023-07-13T08:45:13;36.70;13.90
16827;DHT22;8530;49.540;8.576;2023-07-13T08:47:47;35.80;14.50
16827;DHT22;8530;49.540;8.576;2023-07-13T08:50:17;34.90;15.10
16827;DHT22;8530;49.540;8.576;2023-07-13T08:52:46;34.50;15.80
16827;DHT22;8530;49.540;8.576;2023-07-13T08:55:16;34.30;16.30
16827;DHT22;8530;49.540;8.576;2023-07-13T08:57:51;34.10;16.80
16827;DHT22;8530;49.540;8.576;2023-07-13T09:00:21;34.10;17.30
16827;DHT22;8530;49.540;8.576;2023-07-13T09:02:56;34.00;17.50
16827;DHT22;8530;49.540;8.576;2023-07-13T09:05:28;33.60;17.80
16827;DHT22;8530;49.540;8.576;2023-07-13T09:08:14;33.30;18.00
16827;DHT22;8530;49.540;8.576;2023-07-13T09:10:45;33.00;18.40
16827;DHT22;8530;49.540;8.576;2023-07-13T09:13:23;32.80;18.60
16827;DHT22;8530;49.540;8.576;2023-07-13T09:15:53;32.70;19.00
16827;DHT22;8530;49.540;8.576;2023-07-13T09:18:27;32.60;19.00
16827;DHT22;8530;49.540;8.576;2023-07-13T09:20:58;32.60;19.30
16827;DHT22;8530;49.540;8.576;2023-07-13T09:23:28;32.60;19.50
16827;DHT22;8530;49.540;8.576;2023-07-13T09:26:01;32.60;19.60
16827;DHT22;8530;49.540;8.576;2023-07-13T09:28:29;32.70;19.80
16827;DHT22;8530;49.540;8.576;2023-07-13T09:31:03;32.70;19.90
16827;DHT22;8530;49.540;8.576;2023-07-13T09:33:31;32.80;20.00
16827;DHT22;8530;49.540;8.576;2023-07-13T09:36:00;32.70;20.00
16827;DHT22;8530;49.540;8.576;2023-07-13T09:38:29;32.60;20.10
16827;DHT22;8530;49.540;8.576;2023-07-13T09:41:13;32.40;20.20
16827;DHT22;8530;49.540;8.576;2023-07-13T09:44:00;32.10;20.30
16827;DHT22;8530;49.540;8.576;2023-07-13T09:46:27;31.90;20.50
16827;DHT22;8530;49.540;8.576;2023-07-13T09:48:55;31.80;20.50
16827;DHT22;8530;49.540;8.576;2023-07-13T09:51:22;31.60;20.50
16827;DHT22;8530;49.540;8.576;2023-07-13T09:53:49;31.50;20.60
16827;DHT22;8530;49.540;8.576;2023-07-13T09:56:20;31.50;20.60
16827;DHT22;8530;49.540;8.576;2023-07-13T09:58:47;31.40;20.60
16827;DHT22;8530;49.540;8.576;2023-07-13T10:01:14;31.40;20.70
16827;DHT22;8530;49.540;8.576;2023-07-13T10:03:52;31.30;20.80
16827;DHT22;8530;49.540;8.576;2023-07-13T10:06:22;31.20;21.00
16827;DHT22;8530;49.540;8.576;2023-07-13T10:08:50;31.00;21.10
16827;DHT22;8530;49.540;8.576;2023-07-13T10:11:19;30.60;21.00
16827;DHT22;8530;49.540;8.576;2023-07-13T10:13:53;30.30;21.20
16827;DHT22;8530;49.540;8.576;2023-07-13T10:16:22;30.10;21.50
16827;DHT22;8530;49.540;8.576;2023-07-13T10:18:51;30.00;21.60
16827;DHT22;8530;49.540;8.576;2023-07-13T10:21:23;29.90;21.80
16827;DHT22;8530;49.540;8.576;2023-07-13T10:23:55;29.80;22.10
16827;DHT22;8530;49.540;8.576;2023-07-13T10:26:26;29.50;22.10
16827;DHT22;8530;49.540;8.576;2023-07-13T10:28:56;29.30;22.40
16827;DHT22;8530;49.540;8.576;2023-07-13T10:31:23;29.20;22.60
16827;DHT22;8530;49.540;8.576;2023-07-13T10:33:50;29.20;22.90
16827;DHT22;8530;49.540;8.576;2023-07-13T10:36:29;29.30;23.00
16827;DHT22;8530;49.540;8.576;2023-07-13T10:39:00;29.50;23.10
16827;DHT22;8530;49.540;8.576;2023-07-13T10:41:32;29.60;23.00
16827;DHT22;8530;49.540;8.576;2023-07-13T10:44:01;29.70;23.00
16827;DHT22;8530;49.540;8.576;2023-07-13T10:46:28;29.80;22.90
16827;DHT22;8530;49.540;8.576;2023-07-13T10:48:58;29.90;22.90
16827;DHT22;8530;49.540;8.576;2023-07-13T10:51:27;30.10;22.90
16827;DHT22;8530;49.540;8.576;2023-07-13T10:54:10;30.20;22.70
16827;DHT22;8530;49.540;8.576;2023-07-13T10:56:39;30.60;22.70
16827;DHT22;8530;49.540;8.576;2023-07-13T10:59:12;31.00;22.50
16827;DHT22;8530;49.540;8.576;2023-07-13T11:01:49;31.30;22.40
16827;DHT22;8530;49.540;8.576;2023-07-13T11:04:19;31.50;22.00
16827;DHT22;8530;49.540;8.576;2023-07-13T11:06:50;31.50;21.80
16827;DHT22;8530;49.540;8.576;2023-07-13T11:09:35;31.60;21.70
16827;DHT22;8530;49.540;8.576;2023-07-13T11:12:07;31.60;21.60
16827;DHT22;8530;49.540;8.576;2023-07-13T11:14:36;31.60;21.50
16827;DHT22;8530;49.540;8.576;2023-07-13T11:17:24;31.70;21.40
16827;DHT22;8530;49.540;8.576;2023-07-13T11:19:52;31.90;21.30
16827;DHT22;8530;49.540;8.576;2023-07-13T11:22:24;31.90;21.20
16827;DHT22;8530;49.540;8.576;2023-07-13T11:25:02;31.90;21.00
16827;DHT22;8530;49.540;8.576;2023-07-13T11:27:51;32.00;20.90
16827;DHT22;8530;49.540;8.576;2023-07-13T11:30:25;32.10;20.80
16827;DHT22;8530;49.540;8.576;2023-07-13T11:33:16;32.20;20.80
16827;DHT22;8530;49.540;8.576;2023-07-13T11:35:50;32.20;20.60
16827;DHT22;8530;49.540;8.576;2023-07-13T11:38:21;32.20;20.70
16827;DHT22;8530;49.540;8.576;2023-07-13T11:40:51;32.10;20.60
16827;DHT22;8530;49.540;8.576;2023-07-13T11:43:20;32.10;20.60
16827;DHT22;8530;49.540;8.576;2023-07-13T11:45:49;32.30;20.50
16827;DHT22;8530;49.540;8.576;2023-07-13T11:48:26;32.60;20.20
16827;DHT22;8530;49.540;8.576;2023-07-13T11:50:56;32.90;19.90
16827;DHT22;8530;49.540;8.576;2023-07-13T11:53:28;33.00;19.80
16827;DHT22;8530;49.540;8.576;2023-07-13T11:55:57;33.00;19.70
16827;DHT22;8530;49.540;8.576;2023-07-13T11:58:25;33.00;19.60
16827;DHT22;8530;49.540;8.576;2023-07-13T12:00:56;32.90;19.60
16827;DHT22;8530;49.540;8.576;2023-07-13T12:03:25;32.70;19.80
16827;DHT22;8530;49.540;8.576;2023-07-13T12:05:56;32.40;19.90
16827;DHT22;8530;49.540;8.576;2023-07-13T12:08:25;32.20;19.90
16827;DHT22;8530;49.540;8.576;2023-07-13T12:11:14;32.20;20.00
16827;DHT22;8530;49.540;8.576;2023-07-13T12:13:41;32.00;20.10
16827;DHT22;8530;49.540;8.576;2023-07-13T12:16:15;31.80;20.10
16827;DHT22;8530;49.540;8.576;2023-07-13T12:18:44;31.70;20.30
16827;DHT22;8530;49.540;8.576;2023-07-13T12:21:17;31.70;20.40
16827;DHT22;8530;49.540;8.576;2023-07-13T12:23:48;31.50;20.30
16827;DHT22;8530;49.540;8.576;2023-07-13T12:26:17;31.40;20.40
16827;DHT22;8530;49.540;8.576;2023-07-13T12:28:46;31.20;20.50
16827;DHT22;8530;49.540;8.576;2023-07-13T12:31:29;31.20;20.60
16827;DHT22;8530;49.540;8.576;2023-07-13T12:33:58;31.00;20.70
16827;DHT22;8530;49.540;8.576;2023-07-13T12:36:25;31.00;20.80
16827;DHT22;8530;49.540;8.576;2023-07-13T12:38:53;31.10;20.80
16827;DHT22;8530;49.540;8.576;2023-07-13T12:41:20;31.20;20.90
16827;DHT22;8530;49.540;8.576;2023-07-13T12:43:48;31.20;20.90
16827;DHT22;8530;49.540;8.576;2023-07-13T12:46:17;31.30;20.90
16827;DHT22;8530;49.540;8.576;2023-07-13T12:48:48;31.20;20.70
16827;DHT22;8530;49.540;8.576;2023-07-13T12:51:16;31.30;20.80
16827;DHT22;8530;49.540;8.576;2023-07-13T12:53:47;31.40;20.70
16827;DHT22;8530;49.540;8.576;2023-07-13T12:56:18;31.50;20.70
16827;DHT22;8530;49.540;8.576;2023-07-13T12:58:47;31.50;20.60
16827;DHT22;8530;49.540;8.576;2023-07-13T13:01:20;31.60;20.50
16827;DHT22;8530;49.540;8.576;2023-07-13T13:03:49;31.70;20.40
16827;DHT22;8530;49.540;8.576;2023-07-13T13:06:25;31.80;20.30
16827;DHT22;8530;49.540;8.576;2023-07-13T13:08:53;31.90;20.30
16827;DHT22;8530;49.540;8.576;2023-07-13T13:11:23;32.00;20.20
16827;DHT22;8530;49.540;8.576;2023-07-13T13:13:51;32.00;20.10
16827;DHT22;8530;49.540;8.576;2023-07-13T13:16:21;31.90;20.10
16827;DHT22;8530;49.540;8.576;2023-07-13T13:18:49;31.90;20.10
16827;DHT22;8530;49.540;8.576;2023-07-13T13:21:16;31.80;20.20
16827;DHT22;8530;49.540;8.576;2023-07-13T13:23:43;31.70;20.30
16827;DHT22;8530;49.540;8.576;2023-07-13T13:26:12;31.50;20.40
16827;DHT22;8530;49.540;8.576;2023-07-13T13:28:41;31.50;20.50
16827;DHT22;8530;49.540;8.576;2023-07-13T13:31:09;31.40;20.60
16827;DHT22;8530;49.540;8.576;2023-07-13T13:33:39;31.20;20.70
16827;DHT22;8530;49.540;8.576;2023-07-13T13:36:13;31.10;20.90
16827;DHT22;8530;49.540;8.576;2023-07-13T13:38:41;30.90;21.10
16827;DHT22;8530;49.540;8.576;2023-07-13T13:41:09;30.80;21.20
16827;DHT22;8530;49.540;8.576;2023-07-13T13:43:36;30.70;21.30
16827;DHT22;8530;49.540;8.576;2023-07-13T13:46:13;30.60;21.30
16827;DHT22;8530;49.540;8.576;2023-07-13T13:48:41;30.60;21.40
16827;DHT22;8530;49.540;8.576;2023-07-13T13:51:13;30.60;21.40
16827;DHT22;8530;49.540;8.576;2023-07-13T13:53:41;30.60;21.50
16827;DHT22;8530;49.540;8.576;2023-07-13T13:56:08;30.60;21.60
16827;DHT22;8530;49.540;8.576;2023-07-13T13:58:35;30.50;21.60
16827;DHT22;8530;49.540;8.576;2023-07-13T14:01:02;30.50;21.70
16827;DHT22;8530;49.540;8.576;2023-07-13T14:03:32;30.60;21.80
16827;DHT22;8530;49.540;8.576;2023-07-13T14:05:59;30.80;21.80
16827;DHT22;8530;49.540;8.576;2023-07-13T14:08:26;31.10;21.80
16827;DHT22;8530;49.540;8.576;2023-07-13T14:10:55;31.30;21.80
16827;DHT22;8530;49.540;8.576;2023-07-13T14:13:25;31.50;21.80
16827;DHT22;8530;49.540;8.576;2023-07-13T14:15:53;31.60;21.70
16827;DHT22;8530;49.540;8.576;2023-07-13T14:18:20;31.60;21.60
16827;DHT22;8530;49.540;8.576;2023-07-13T14:20:50;31.70;21.60
16827;DHT22;8530;49.540;8.576;2023-07-13T14:23:18;31.80;21.60
16827;DHT22;8530;49.540;8.576;2023-07-13T14:25:44;31.80;21.50
16827;DHT22;8530;49.540;8.576;2023-07-13T14:28:20;31.80;21.90
16827;DHT22;8530;49.540;8.576;2023-07-13T14:30:47;31.90;21.50
16827;DHT22;8530;49.540;8.576;2023-07-13T14:33:14;32.00;21.40
16827;DHT22;8530;49.540;8.576;2023-07-13T14:35:41;32.00;21.30
16827;DHT22;8530;49.540;8.576;2023-07-13T14:38:13;32.00;21.20
16827;DHT22;8530;49.540;8.576;2023-07-13T14:40:40;31.90;21.20
16827;DHT22;8530;49.540;8.576;2023-07-13T14:43:10;31.70;21.20
16827;DHT22;8530;49.540;8.576;2023-07-13T14:45:40;31.60;21.30
16827;DHT22;8530;49.540;8.576;2023-07-13T14:48:14;31.70;21.30
16827;DHT22;8530;49.540;8.576;2023-07-13T14:50:41;31.70;21.30
16827;DHT22;8530;49.540;8.576;2023-07-13T14:53:11;31.80;21.30
16827;DHT22;8530;49.540;8.576;2023-07-13T14:55:38;31.80;21.30
16827;DHT22;8530;49.540;8.576;2023-07-13T14:58:06;31.70;21.30
16827;DHT22;8530;49.540;8.576;2023-07-13T15:00:33;31.50;21.40
16827;DHT22;8530;49.540;8.576;2023-07-13T15:03:00;31.30;21.50
16827;DHT22;8530;49.540;8.576;2023-07-13T15:05:29;31.00;21.60
16827;DHT22;8530;49.540;8.576;2023-07-13T15:07:57;30.80;21.90
16827;DHT22;8530;49.540;8.576;2023-07-13T15:10:27;30.70;22.00
16827;DHT22;8530;49.540;8.576;2023-07-13T15:12:58;30.80;22.20
16827;DHT22;8530;49.540;8.576;2023-07-13T15:15:25;31.10;22.20
16827;DHT22;8530;49.540;8.576;2023-07-13T15:17:51;31.10;22.10
16827;DHT22;8530;49.540;8.576;2023-07-13T15:20:29;31.10;22.10
16827;DHT22;8530;49.540;8.576;2023-07-13T15:22:57;30.80;22.20
16827;DHT22;8530;49.540;8.576;2023-07-13T15:25:26;30.50;22.20
16827;DHT22;8530;49.540;8.576;2023-07-13T15:27:54;30.20;22.30
16827;DHT22;8530;49.540;8.576;2023-07-13T15:30:22;30.20;22.50
16827;DHT22;8530;49.540;8.576;2023-07-13T15:32:49;30.20;22.60
16827;DHT22;8530;49.540;8.576;2023-07-13T15:35:17;30.10;22.60
16827;DHT22;8530;49.540;8.576;2023-07-13T15:37:44;30.00;22.70
16827;DHT22;8530;49.540;8.576;2023-07-13T15:40:12;29.80;22.80
16827;DHT22;8530;49.540;8.576;2023-07-13T15:42:41;29.60;22.90
16827;DHT22;8530;49.540;8.576;2023-07-13T15:45:17;29.50;23.20
16827;DHT22;8530;49.540;8.576;2023-07-13T15:47:44;29.30;23.30
16827;DHT22;8530;49.540;8.576;2023-07-13T15:50:13;29.30;23.50
16827;DHT22;8530;49.540;8.576;2023-07-13T15:52:41;29.40;23.80
16827;DHT22;8530;49.540;8.576;2023-07-13T15:55:10;29.60;23.70
16827;DHT22;8530;49.540;8.576;2023-07-13T15:57:37;29.90;23.80
16827;DHT22;8530;49.540;8.576;2023-07-13T16:00:14;29.90;23.70